sensor_id;sensor_type;location;lat;lon;timestamp;pressure;altitude;pressure_sealevel;temperature;humidity
75447;BME280;64024;55.820;37.574;2024-03-02T00:00:19;100082.91;;;18.07;44.99
75447;BME280;64024;55.820;37.574;2024-03-02T00:02:48;100090.16;;;18.07;44.83
75447;BME280;64024;55.820;37.574;2024-03-02T00:05:18;100091.22;;;18.06;44.88
75447;BME280;64024;55.820;37.574;2024-03-02T00:07:47;100087.72;;;18.05;44.79
75447;BME280;64024;55.820;37.574;2024-03-02T00:10:20;100084.44;;;18.03;44.91
75447;BME280;64024;55.820;37.574;2024-03-02T00:12:47;100075.56;;;18.03;44.81
75447;BME280;64024;55.820;37.574;2024-03-02T00:18:05;100075.81;;;18.01;44.67
75447;BME280;64024;55.820;37.574;2024-03-02T00:20:31;100084.94;;;18.00;44.73
75447;BME280;64024;55.820;37.574;2024-03-02T00:23:04;100075.47;;;17.98;44.62
75447;BME280;64024;55.820;37.574;2024-03-02T00:25:49;100078.97;;;17.98;44.48
75447;BME280;64024;55.820;37.574;2024-03-02T00:33:11;100075.09;;;17.94;44.64
75447;BME280;64024;55.820;37.574;2024-03-02T00:35:37;100075.09;;;17.94;44.34
75447;BME280;64024;55.820;37.574;2024-03-02T00:38:06;100077.22;;;17.92;44.52
75447;BME280;64024;55.820;37.574;2024-03-02T00:40:32;100079.91;;;17.92;44.61
75447;BME280;64024;55.820;37.574;2024-03-02T00:42:58;100069.38;;;17.91;44.36
75447;BME280;64024;55.820;37.574;2024-03-02T00:45:25;100069.63;;;17.89;44.35
75447;BME280;64024;55.820;37.574;2024-03-02T00:47:52;100080.38;;;17.89;44.42
75447;BME280;64024;55.820;37.574;2024-03-02T00:50:18;100082.25;;;17.88;44.36
75447;BME280;64024;55.820;37.574;2024-03-02T00:52:46;100080.63;;;17.87;44.28
75447;BME280;64024;55.820;37.574;2024-03-02T00:55:14;100078.16;;;17.86;44.30
75447;BME280;64024;55.820;37.574;2024-03-02T00:57:40;100083.53;;;17.86;44.33
75447;BME280;64024;55.820;37.574;2024-03-02T01:00:06;100085.41;;;17.85;44.12
75447;BME280;64024;55.820;37.574;2024-03-02T01:02:35;100085.66;;;17.84;44.11
75447;BME280;64024;55.820;37.574;2024-03-02T01:05:00;100087.53;;;17.83;44.38
75447;BME280;64024;55.820;37.574;2024-03-02T01:07:26;100096.63;;;17.82;44.23
75447;BME280;64024;55.820;37.574;2024-03-02T01:09:52;100092.31;;;17.81;44.07
75447;BME280;64024;55.820;37.574;2024-03-02T01:12:17;100092.56;;;17.80;44.00
75447;BME280;64024;55.820;37.574;2024-03-02T01:14:43;100105.19;;;17.79;44.08
75447;BME280;64024;55.820;37.574;2024-03-02T01:17:09;100101.66;;;17.79;43.97
75447;BME280;64024;55.820;37.574;2024-03-02T01:19:34;100098.16;;;17.78;44.04
75447;BME280;64024;55.820;37.574;2024-03-02T01:22:00;100094.63;;;17.78;44.05
75447;BME280;64024;55.820;37.574;2024-03-02T01:24:26;100101.06;;;17.77;44.02
75447;BME280;64024;55.820;37.574;2024-03-02T01:26:51;100094.88;;;17.76;43.94
75447;BME280;64024;55.820;37.574;2024-03-02T01:29:17;100088.69;;;17.76;44.03
75447;BME280;64024;55.820;37.574;2024-03-02T01:31:43;100094.28;;;17.74;43.83
75447;BME280;64024;55.820;37.574;2024-03-02T01:34:09;100096.97;;;17.74;43.88
75447;BME280;64024;55.820;37.574;2024-03-02T01:36:34;100091.59;;;17.74;43.92
75447;BME280;64024;55.820;37.574;2024-03-02T01:39:00;100084.56;;;17.73;43.84
75447;BME280;64024;55.820;37.574;2024-03-02T01:41:26;100094.50;;;17.73;43.88
75447;BME280;64024;55.820;37.574;2024-03-02T01:43:52;100092.06;;;17.71;43.81
75447;BME280;64024;55.820;37.574;2024-03-02T01:46:18;100089.38;;;17.71;43.93
75447;BME280;64024;55.820;37.574;2024-03-02T01:48:43;100089.59;;;17.70;43.73
75447;BME280;64024;55.820;37.574;2024-03-02T01:51:09;100088.78;;;17.69;43.81
75447;BME280;64024;55.820;37.574;2024-03-02T01:53:36;100094.97;;;17.70;43.94
75447;BME280;64024;55.820;37.574;2024-03-02T01:56:02;100084.44;;;17.68;43.81
75447;BME280;64024;55.820;37.574;2024-03-02T01:58:28;100089.81;;;17.68;43.75
75447;BME280;64024;55.820;37.574;2024-03-02T02:00:54;100091.69;;;17.68;44.05
75447;BME280;64024;55.820;37.574;2024-03-02T02:03:20;100088.19;;;17.67;43.66
75447;BME280;64024;55.820;37.574;2024-03-02T02:05:46;100084.66;;;17.67;43.71
75447;BME280;64024;55.820;37.574;2024-03-02T02:08:13;100094.59;;;17.66;43.84
75447;BME280;64024;55.820;37.574;2024-03-02T02:10:39;100091.91;;;17.66;43.69
75447;BME280;64024;55.820;37.574;2024-03-02T02:13:04;100095.66;;;17.65;43.70
75447;BME280;64024;55.820;37.574;2024-03-02T02:15:30;100093.22;;;17.63;43.66
75447;BME280;64024;55.820;37.574;2024-03-02T02:17:57;100090.53;;;17.63;43.77
75447;BME280;64024;55.820;37.574;2024-03-02T02:20:23;100093.22;;;17.63;43.67
75447;BME280;64024;55.820;37.574;2024-03-02T02:23:02;100095.09;;;17.63;43.91
75447;BME280;64024;55.820;37.574;2024-03-02T02:25:29;100099.66;;;17.62;43.71
75447;BME280;64024;55.820;37.574;2024-03-02T02:27:56;100098.00;;;17.61;43.83
75447;BME280;64024;55.820;37.574;2024-03-02T02:30:24;100100.69;;;17.61;43.85
75447;BME280;64024;55.820;37.574;2024-03-02T02:32:50;100105.25;;;17.61;43.44
75447;BME280;64024;55.820;37.574;2024-03-02T02:35:16;100106.31;;;17.60;43.73
75447;BME280;64024;55.820;37.574;2024-03-02T02:37:42;100117.06;;;17.60;43.82
75447;BME280;64024;55.820;37.574;2024-03-02T02:40:08;100120.56;;;17.60;43.59
75447;BME280;64024;55.820;37.574;2024-03-02T02:42:34;100115.44;;;17.59;43.65
75447;BME280;64024;55.820;37.574;2024-03-02T02:45:00;100118.94;;;17.59;43.73
75447;BME280;64024;55.820;37.574;2024-03-02T02:47:26;100113.56;;;17.59;43.68
75447;BME280;64024;55.820;37.574;2024-03-02T02:49:53;100117.88;;;17.60;43.67
75447;BME280;64024;55.820;37.574;2024-03-02T02:52:19;100109.22;;;17.58;43.89
75447;BME280;64024;55.820;37.574;2024-03-02T02:54:45;100118.13;;;17.59;43.83
75447;BME280;64024;55.820;37.574;2024-03-02T02:57:11;100118.13;;;17.59;43.83
75447;BME280;64024;55.820;37.574;2024-03-02T02:59:37;100111.91;;;17.58;43.83
75447;BME280;64024;55.820;37.574;2024-03-02T03:02:02;100102.81;;;17.59;43.72
75447;BME280;64024;55.820;37.574;2024-03-02T03:04:28;100111.91;;;17.58;44.27
75447;BME280;64024;55.820;37.574;2024-03-02T03:06:54;100109.22;;;17.58;44.13
75447;BME280;64024;55.820;37.574;2024-03-02T03:09:20;100107.13;;;17.60;44.26
75447;BME280;64024;55.820;37.574;2024-03-02T03:11:46;100119.75;;;17.60;44.35
75447;BME280;64024;55.820;37.574;2024-03-02T03:14:11;100120.56;;;17.60;44.31
75447;BME280;64024;55.820;37.574;2024-03-02T03:16:37;100125.94;;;17.60;44.52
75447;BME280;64024;55.820;37.574;2024-03-02T03:19:03;100125.13;;;17.60;44.59
75447;BME280;64024;55.820;37.574;2024-03-02T03:21:29;100129.69;;;17.59;44.42
75447;BME280;64024;55.820;37.574;2024-03-02T03:23:55;100121.63;;;17.59;44.57
75447;BME280;64024;55.820;37.574;2024-03-02T03:26:22;100116.25;;;17.59;44.76
75447;BME280;64024;55.820;37.574;2024-03-02T03:28:48;100113.56;;;17.59;44.85
75447;BME280;64024;55.820;37.574;2024-03-02T03:31:14;100113.56;;;17.59;44.89
75447;BME280;64024;55.820;37.574;2024-03-02T03:33:39;100110.03;;;17.59;44.98
75447;BME280;64024;55.820;37.574;2024-03-02T03:36:05;100119.75;;;17.60;45.30
75447;BME280;64024;55.820;37.574;2024-03-02T03:38:31;100115.19;;;17.60;45.42
75447;BME280;64024;55.820;37.574;2024-03-02T03:40:56;100109.00;;;17.60;45.43
75447;BME280;64024;55.820;37.574;2024-03-02T03:43:22;100107.13;;;17.60;45.55
75447;BME280;64024;55.820;37.574;2024-03-02T03:45:48;100105.50;;;17.59;45.36
75447;BME280;64024;55.820;37.574;2024-03-02T03:48:14;100099.88;;;17.61;45.27
75447;BME280;64024;55.820;37.574;2024-03-02T03:50:40;100106.31;;;17.60;45.19
75447;BME280;64024;55.820;37.574;2024-03-02T03:53:06;100101.97;;;17.59;45.24
75447;BME280;64024;55.820;37.574;2024-03-02T03:55:32;100109.00;;;17.60;45.02
75447;BME280;64024;55.820;37.574;2024-03-02T03:57:58;100108.19;;;17.59;44.99
75447;BME280;64024;55.820;37.574;2024-03-02T04:00:24;100106.53;;;17.58;44.98
75447;BME280;64024;55.820;37.574;2024-03-02T04:02:50;100106.31;;;17.60;44.87
75447;BME280;64024;55.820;37.574;2024-03-02T04:05:15;100105.50;;;17.59;44.77
75447;BME280;64024;55.820;37.574;2024-03-02T04:07:41;100100.09;;;17.59;44.70
75447;BME280;64024;55.820;37.574;2024-03-02T04:10:09;100101.16;;;17.58;44.62
75447;BME280;64024;55.820;37.574;2024-03-02T04:12:36;100103.84;;;17.58;44.66
75447;BME280;64024;55.820;37.574;2024-03-02T04:15:05;100101.97;;;17.59;44.64
75447;BME280;64024;55.820;37.574;2024-03-02T04:17:33;100112.75;;;17.59;44.63
75447;BME280;64024;55.820;37.574;2024-03-02T04:19:59;100105.69;;;17.58;44.62
75447;BME280;64024;55.820;37.574;2024-03-02T04:22:27;100108.38;;;17.58;44.50
75447;BME280;64024;55.820;37.574;2024-03-02T04:24:52;100108.63;;;17.56;44.45
75447;BME280;64024;55.820;37.574;2024-03-02T04:27:18;100112.13;;;17.57;44.46
75447;BME280;64024;55.820;37.574;2024-03-02T04:29:44;100111.31;;;17.56;44.54
75447;BME280;64024;55.820;37.574;2024-03-02T04:32:10;100114.00;;;17.56;44.33
75447;BME280;64024;55.820;37.574;2024-03-02T04:34:36;100113.19;;;17.56;44.37
75447;BME280;64024;55.820;37.574;2024-03-02T04:37:01;100116.69;;;17.56;44.33
75447;BME280;64024;55.820;37.574;2024-03-02T04:39:27;100114.00;;;17.56;44.54
75447;BME280;64024;55.820;37.574;2024-03-02T04:41:54;100112.13;;;17.57;44.17
75447;BME280;64024;55.820;37.574;2024-03-02T04:44:19;100108.63;;;17.56;44.20
75447;BME280;64024;55.820;37.574;2024-03-02T04:46:45;100111.31;;;17.56;44.14
75447;BME280;64024;55.820;37.574;2024-03-02T04:49:11;100116.69;;;17.56;44.13
75447;BME280;64024;55.820;37.574;2024-03-02T04:51:37;100113.19;;;17.56;44.26
75447;BME280;64024;55.820;37.574;2024-03-02T04:54:03;100114.00;;;17.56;44.17
75447;BME280;64024;55.820;37.574;2024-03-02T04:56:29;100110.50;;;17.56;44.00
75447;BME280;64024;55.820;37.574;2024-03-02T04:58:57;100108.63;;;17.56;44.06
75447;BME280;64024;55.820;37.574;2024-03-02T05:01:23;100107.81;;;17.56;44.04
75447;BME280;64024;55.820;37.574;2024-03-02T05:03:49;100114.00;;;17.56;44.12
75447;BME280;64024;55.820;37.574;2024-03-02T05:06:15;100113.19;;;17.56;43.71
75447;BME280;64024;55.820;37.574;2024-03-02T05:08:41;100108.63;;;17.56;44.01
75447;BME280;64024;55.820;37.574;2024-03-02T05:11:07;100104.31;;;17.55;43.96
75447;BME280;64024;55.820;37.574;2024-03-02T05:13:51;100105.94;;;17.56;44.12
75447;BME280;64024;55.820;37.574;2024-03-02T05:16:16;100106.75;;;17.57;43.96
75447;BME280;64024;55.820;37.574;2024-03-02T05:18:42;100104.06;;;17.57;43.99
75447;BME280;64024;55.820;37.574;2024-03-02T05:21:08;100096.00;;;17.57;43.96
75447;BME280;64024;55.820;37.574;2024-03-02T05:23:33;100099.50;;;17.57;43.99
75447;BME280;64024;55.820;37.574;2024-03-02T05:25:59;100107.34;;;17.59;43.79
75447;BME280;64024;55.820;37.574;2024-03-02T05:28:25;100109.00;;;17.60;44.02
75447;BME280;64024;55.820;37.574;2024-03-02T05:30:50;100109.81;;;17.60;43.90
75447;BME280;64024;55.820;37.574;2024-03-02T05:33:17;100110.63;;;17.61;43.79
75447;BME280;64024;55.820;37.574;2024-03-02T05:35:44;100109.00;;;17.60;43.81
75447;BME280;64024;55.820;37.574;2024-03-02T05:38:09;100111.44;;;17.61;43.83
75447;BME280;64024;55.820;37.574;2024-03-02T05:40:35;100111.22;;;17.63;44.15
75447;BME280;64024;55.820;37.574;2024-03-02T05:43:01;100115.53;;;17.64;43.75
75447;BME280;64024;55.820;37.574;2024-03-02T05:45:26;100126.84;;;17.66;43.89
75447;BME280;64024;55.820;37.574;2024-03-02T05:47:52;100121.47;;;17.66;43.90
75447;BME280;64024;55.820;37.574;2024-03-02T05:50:18;100120.66;;;17.65;43.68
75447;BME280;64024;55.820;37.574;2024-03-02T05:52:45;100130.38;;;17.67;43.64
75447;BME280;64024;55.820;37.574;2024-03-02T05:55:11;100134.13;;;17.65;43.49
75447;BME280;64024;55.820;37.574;2024-03-02T05:57:37;100127.69;;;17.67;43.63
75447;BME280;64024;55.820;37.574;2024-03-02T06:00:08;100131.22;;;17.67;43.57
75447;BME280;64024;55.820;37.574;2024-03-02T06:02:34;100136.59;;;17.67;43.63
75447;BME280;64024;55.820;37.574;2024-03-02T06:05:03;100131.22;;;17.67;43.44
75447;BME280;64024;55.820;37.574;2024-03-02T06:07:30;100138.44;;;17.67;43.49
75447;BME280;64024;55.820;37.574;2024-03-02T06:09:55;100131.22;;;17.67;43.42
75447;BME280;64024;55.820;37.574;2024-03-02T06:12:21;100126.66;;;17.68;43.47
75447;BME280;64024;55.820;37.574;2024-03-02T06:14:46;100132.84;;;17.68;43.39
75447;BME280;64024;55.820;37.574;2024-03-02T06:17:12;100128.28;;;17.69;43.34
75447;BME280;64024;55.820;37.574;2024-03-02T06:19:38;100129.09;;;17.69;43.23
75447;BME280;64024;55.820;37.574;2024-03-02T06:22:04;100126.41;;;17.69;43.30
75447;BME280;64024;55.820;37.574;2024-03-02T06:24:31;100112.16;;;17.69;43.29
75447;BME280;64024;55.820;37.574;2024-03-02T06:26:57;100115.66;;;17.69;43.16
75447;BME280;64024;55.820;37.574;2024-03-02T06:29:23;100108.41;;;17.70;43.37
75447;BME280;64024;55.820;37.574;2024-03-02T06:31:48;100114.59;;;17.70;43.00
75447;BME280;64024;55.820;37.574;2024-03-02T06:34:14;100118.94;;;17.71;43.11
75447;BME280;64024;55.820;37.574;2024-03-02T06:36:40;100118.94;;;17.71;42.77
75447;BME280;64024;55.820;37.574;2024-03-02T06:39:08;100113.56;;;17.71;42.90
75447;BME280;64024;55.820;37.574;2024-03-02T06:41:34;100115.19;;;17.72;42.81
75447;BME280;64024;55.820;37.574;2024-03-02T06:43:59;100116.41;;;17.76;43.11
75447;BME280;64024;55.820;37.574;2024-03-02T06:46:25;100114.28;;;17.78;43.16
75447;BME280;64024;55.820;37.574;2024-03-02T06:48:51;100116.50;;;17.81;43.20
75447;BME280;64024;55.820;37.574;2024-03-02T06:51:17;100115.00;;;17.85;43.29
75447;BME280;64024;55.820;37.574;2024-03-02T06:53:42;100114.53;;;17.88;43.31
75447;BME280;64024;55.820;37.574;2024-03-02T06:56:08;100113.00;;;17.93;43.51
75447;BME280;64024;55.820;37.574;2024-03-02T06:58:34;100116.03;;;17.96;43.70
75447;BME280;64024;55.820;37.574;2024-03-02T07:01:00;100112.88;;;17.99;43.54
75447;BME280;64024;55.820;37.574;2024-03-02T07:03:26;100119.41;;;18.03;43.53
75447;BME280;64024;55.820;37.574;2024-03-02T07:05:51;100122.44;;;18.07;43.48
75447;BME280;64024;55.820;37.574;2024-03-02T07:08:17;100121.19;;;18.09;43.44
75447;BME280;64024;55.820;37.574;2024-03-02T07:10:43;100121.53;;;18.13;43.40
75447;BME280;64024;55.820;37.574;2024-03-02T07:13:08;100115.91;;;18.14;43.43
75447;BME280;64024;55.820;37.574;2024-03-02T07:15:35;100125.38;;;18.17;43.14
75447;BME280;64024;55.820;37.574;2024-03-02T07:18:12;100125.72;;;18.21;43.14
75447;BME280;64024;55.820;37.574;2024-03-02T07:20:38;100125.47;;;18.22;43.21
75447;BME280;64024;55.820;37.574;2024-03-02T07:23:23;100130.41;;;18.25;43.27
75447;BME280;64024;55.820;37.574;2024-03-02T07:25:53;100126.66;;;18.26;43.18
75447;BME280;64024;55.820;37.574;2024-03-02T07:28:23;100122.91;;;18.27;43.21
75447;BME280;64024;55.820;37.574;2024-03-02T07:31:04;100124.06;;;18.31;43.39
75447;BME280;64024;55.820;37.574;2024-03-02T07:33:31;100119.50;;;18.32;43.37
75447;BME280;64024;55.820;37.574;2024-03-02T07:35:59;100118.44;;;18.33;43.34
75447;BME280;64024;55.820;37.574;2024-03-02T07:38:27;100119.03;;;18.35;43.22
75447;BME280;64024;55.820;37.574;2024-03-02T07:40:53;100117.97;;;18.36;43.39
75447;BME280;64024;55.820;37.574;2024-03-02T07:43:19;100111.50;;;18.37;43.33
75447;BME280;64024;55.820;37.574;2024-03-02T07:45:46;100108.00;;;18.36;42.95
75447;BME280;64024;55.820;37.574;2024-03-02T07:48:12;100108.81;;;18.37;42.91
75447;BME280;64024;55.820;37.574;2024-03-02T07:50:37;100105.09;;;18.38;43.00
75447;BME280;64024;55.820;37.574;2024-03-02T07:53:05;100103.22;;;18.38;43.07
75447;BME280;64024;55.820;37.574;2024-03-02T07:55:31;100103.22;;;18.38;42.77
75447;BME280;64024;55.820;37.574;2024-03-02T07:57:57;100103.22;;;18.38;43.13
75447;BME280;64024;55.820;37.574;2024-03-02T08:00:23;100101.34;;;18.39;43.07
75447;BME280;64024;55.820;37.574;2024-03-02T08:02:50;100105.66;;;18.40;43.18
75447;BME280;64024;55.820;37.574;2024-03-02T08:05:18;100100.28;;;18.40;43.15
75447;BME280;64024;55.820;37.574;2024-03-02T08:07:45;100100.88;;;18.42;43.21
75447;BME280;64024;55.820;37.574;2024-03-02T08:10:12;100098.75;;;18.44;43.20
75447;BME280;64024;55.820;37.574;2024-03-02T08:12:38;100098.53;;;18.46;43.21
75447;BME280;64024;55.820;37.574;2024-03-02T08:15:04;100094.78;;;18.47;43.31
75447;BME280;64024;55.820;37.574;2024-03-02T08:17:30;100096.16;;;18.49;43.38
75447;BME280;64024;55.820;37.574;2024-03-02T08:19:56;100101.06;;;18.52;43.28
75447;BME280;64024;55.820;37.574;2024-03-02T08:22:23;100101.66;;;18.54;43.47
75447;BME280;64024;55.820;37.574;2024-03-02T08:24:51;100105.72;;;18.57;43.16
75447;BME280;64024;55.820;37.574;2024-03-02T08:27:17;100111.72;;;18.59;43.17
75447;BME280;64024;55.820;37.574;2024-03-02T08:29:42;100102.31;;;18.61;43.49
75447;BME280;64024;55.820;37.574;2024-03-02T08:32:08;100104.53;;;18.64;43.32
75447;BME280;64024;55.820;37.574;2024-03-02T08:34:33;100098.09;;;18.66;42.97
75447;BME280;64024;55.820;37.574;2024-03-02T08:37:03;100106.75;;;18.68;42.99
75447;BME280;64024;55.820;37.574;2024-03-02T08:39:29;100102.78;;;18.70;43.04
75447;BME280;64024;55.820;37.574;2024-03-02T08:41:55;100102.56;;;18.72;42.99
75447;BME280;64024;55.820;37.574;2024-03-02T08:44:21;100092.34;;;18.74;42.40
75447;BME280;64024;55.820;37.574;2024-03-02T08:46:47;100092.94;;;18.76;42.95
75447;BME280;64024;55.820;37.574;2024-03-02T08:49:13;100091.63;;;18.78;43.06
75447;BME280;64024;55.820;37.574;2024-03-02T08:51:38;100105.69;;;18.80;42.81
75447;BME280;64024;55.820;37.574;2024-03-02T08:54:04;100094.66;;;18.82;43.11
75447;BME280;64024;55.820;37.574;2024-03-02T08:56:31;100096.88;;;18.85;42.85
75447;BME280;64024;55.820;37.574;2024-03-02T08:58:56;100101.19;;;18.86;42.91
75447;BME280;64024;55.820;37.574;2024-03-02T09:01:22;100098.28;;;18.87;42.99
75447;BME280;64024;55.820;37.574;2024-03-02T09:03:48;100103.41;;;18.89;43.15
75447;BME280;64024;55.820;37.574;2024-03-02T09:06:17;100096.97;;;18.90;42.82
75447;BME280;64024;55.820;37.574;2024-03-02T09:08:43;100090.28;;;18.93;42.69
75447;BME280;64024;55.820;37.574;2024-03-02T09:11:09;100096.50;;;18.93;42.74
75447;BME280;64024;55.820;37.574;2024-03-02T09:13:36;100088.75;;;18.97;42.75
75447;BME280;64024;55.820;37.574;2024-03-02T09:16:03;100092.00;;;18.99;42.75
75447;BME280;64024;55.820;37.574;2024-03-02T09:18:29;100087.22;;;19.01;42.54
75447;BME280;64024;55.820;37.574;2024-03-02T09:20:55;100088.56;;;19.03;42.45
75447;BME280;64024;55.820;37.574;2024-03-02T09:23:21;100091.88;;;19.05;42.71
75447;BME280;64024;55.820;37.574;2024-03-02T09:25:46;100094.91;;;19.09;42.66
75447;BME280;64024;55.820;37.574;2024-03-02T09:28:12;100086.81;;;19.09;42.57
75447;BME280;64024;55.820;37.574;2024-03-02T09:30:38;100082.78;;;19.11;42.55
75447;BME280;64024;55.820;37.574;2024-03-02T09:33:04;100082.56;;;19.13;42.49
75447;BME280;64024;55.820;37.574;2024-03-02T09:35:30;100090.16;;;19.16;42.46
75447;BME280;64024;55.820;37.574;2024-03-02T09:37:56;100073.75;;;19.18;42.61
75447;BME280;64024;55.820;37.574;2024-03-02T09:40:22;100082.38;;;19.20;42.66
75447;BME280;64024;55.820;37.574;2024-03-02T09:42:48;100074.09;;;19.21;42.44
75447;BME280;64024;55.820;37.574;2024-03-02T09:45:23;100075.44;;;19.24;42.51
75447;BME280;64024;55.820;37.574;2024-03-02T09:47:49;100067.97;;;19.26;42.39
75447;BME280;64024;55.820;37.574;2024-03-02T09:50:15;100072.88;;;19.29;42.35
75447;BME280;64024;55.820;37.574;2024-03-02T09:52:42;100074.50;;;19.30;42.36
75447;BME280;64024;55.820;37.574;2024-03-02T09:55:11;100076.72;;;19.33;42.29
75447;BME280;64024;55.820;37.574;2024-03-02T09:57:37;100066.47;;;19.35;42.40
75447;BME280;64024;55.820;37.574;2024-03-02T10:00:03;100063.53;;;19.36;42.44
75447;BME280;64024;55.820;37.574;2024-03-02T10:02:29;100071.38;;;19.38;42.39
75447;BME280;64024;55.820;37.574;2024-03-02T10:04:55;100070.31;;;19.39;42.14
75447;BME280;64024;55.820;37.574;2024-03-02T10:07:20;100069.84;;;19.42;42.06
75447;BME280;64024;55.820;37.574;2024-03-02T10:09:47;100074.97;;;19.44;42.16
75447;BME280;64024;55.820;37.574;2024-03-02T10:12:16;100074.50;;;19.47;41.98
75447;BME280;64024;55.820;37.574;2024-03-02T10:14:42;100069.66;;;19.49;42.10
75447;BME280;64024;55.820;37.574;2024-03-02T10:17:10;100070.25;;;19.51;41.81
75447;BME280;64024;55.820;37.574;2024-03-02T10:19:37;100070.78;;;19.53;41.96
75447;BME280;64024;55.820;37.574;2024-03-02T10:22:07;100075.97;;;19.54;42.05
75447;BME280;64024;55.820;37.574;2024-03-02T10:27:22;100075.22;;;19.59;41.89
75447;BME280;64024;55.820;37.574;2024-03-02T10:29:49;100081.19;;;19.61;41.89
75447;BME280;64024;55.820;37.574;2024-03-02T10:32:16;100080.97;;;19.63;41.85
75447;BME280;64024;55.820;37.574;2024-03-02T10:34:44;100082.59;;;19.64;41.83
75447;BME280;64024;55.820;37.574;2024-03-02T10:37:11;100086.91;;;19.65;41.97
75447;BME280;64024;55.820;37.574;2024-03-02T10:39:37;100084.13;;;19.76;41.75
75447;BME280;64024;55.820;37.574;2024-03-02T10:42:06;100098.34;;;19.72;41.86
75447;BME280;64024;55.820;37.574;2024-03-02T10:44:33;100091.56;;;19.69;41.59
75447;BME280;64024;55.820;37.574;2024-03-02T10:47:03;100096.16;;;19.69;41.76
75447;BME280;64024;55.820;37.574;2024-03-02T10:49:30;100093.44;;;19.69;41.55
75447;BME280;64024;55.820;37.574;2024-03-02T10:51:57;100091.72;;;19.79;41.68
75447;BME280;64024;55.820;37.574;2024-03-02T10:54:23;100093.53;;;19.74;41.65
75447;BME280;64024;55.820;37.574;2024-03-02T10:56:53;100086.75;;;19.71;41.57
75447;BME280;64024;55.820;37.574;2024-03-02T10:59:33;100081.38;;;19.71;41.58
75447;BME280;64024;55.820;37.574;2024-03-02T11:02:01;100078.66;;;19.71;41.66
75447;BME280;64024;55.820;37.574;2024-03-02T11:04:29;100079.47;;;19.72;41.49
75447;BME280;64024;55.820;37.574;2024-03-02T11:07:00;100088.63;;;19.71;41.40
75447;BME280;64024;55.820;37.574;2024-03-02T11:09:27;100090.28;;;19.72;41.66
75447;BME280;64024;55.820;37.574;2024-03-02T11:12:02;100085.69;;;19.72;41.54
75447;BME280;64024;55.820;37.574;2024-03-02T11:14:31;100078.66;;;19.71;41.77
75447;BME280;64024;55.820;37.574;2024-03-02T11:17:02;100081.09;;;19.73;41.82
75447;BME280;64024;55.820;37.574;2024-03-02T11:19:30;100075.72;;;19.73;42.04
75447;BME280;64024;55.820;37.574;2024-03-02T11:21:56;100092.63;;;19.85;42.04
75447;BME280;64024;55.820;37.574;2024-03-02T11:27:07;100094.91;;;19.76;42.06
75447;BME280;64024;55.820;37.574;2024-03-02T11:32:03;100088.97;;;19.74;42.32
75447;BME280;64024;55.820;37.574;2024-03-02T11:34:35;100086.28;;;19.74;42.80
75447;BME280;64024;55.820;37.574;2024-03-02T11:37:01;100085.44;;;19.74;42.64
75447;BME280;64024;55.820;37.574;2024-03-02T11:39:28;100081.69;;;19.75;42.67
75447;BME280;64024;55.820;37.574;2024-03-02T11:41:59;100077.09;;;19.75;42.81
75447;BME280;64024;55.820;37.574;2024-03-02T11:44:28;100067.13;;;19.76;42.88
75447;BME280;64024;55.820;37.574;2024-03-02T11:47:01;100065.00;;;19.78;42.68
75447;BME280;64024;55.820;37.574;2024-03-02T11:49:48;100062.88;;;19.80;42.73
75447;BME280;64024;55.820;37.574;2024-03-02T11:52:14;100072.03;;;19.79;42.81
75447;BME280;64024;55.820;37.574;2024-03-02T11:54:43;100074.75;;;19.79;42.43
75447;BME280;64024;55.820;37.574;2024-03-02T11:57:20;100070.38;;;19.78;42.46
75447;BME280;64024;55.820;37.574;2024-03-02T11:59:50;100072.84;;;19.79;42.68
75447;BME280;64024;55.820;37.574;2024-03-02T12:02:19;100064.19;;;19.77;42.54
75447;BME280;64024;55.820;37.574;2024-03-02T12:04:45;100060.66;;;19.77;42.55
75447;BME280;64024;55.820;37.574;2024-03-02T12:07:22;100062.28;;;19.78;42.34
75447;BME280;64024;55.820;37.574;2024-03-02T12:10:09;100067.47;;;19.79;42.59
75447;BME280;64024;55.820;37.574;2024-03-02T12:12:34;100068.53;;;19.78;42.32
75447;BME280;64024;55.820;37.574;2024-03-02T12:15:00;100070.38;;;19.78;42.49
75447;BME280;64024;55.820;37.574;2024-03-02T12:17:26;100066.06;;;19.77;42.46
75447;BME280;64024;55.820;37.574;2024-03-02T12:19:52;100063.63;;;19.75;42.45
75447;BME280;64024;55.820;37.574;2024-03-02T12:22:18;100072.53;;;19.76;42.53
75447;BME280;64024;55.820;37.574;2024-03-02T12:24:44;100067.13;;;19.76;42.44
75447;BME280;64024;55.820;37.574;2024-03-02T12:27:12;100071.72;;;19.75;42.38
75447;BME280;64024;55.820;37.574;2024-03-02T12:29:38;100071.72;;;19.75;42.48
75447;BME280;64024;55.820;37.574;2024-03-02T12:32:05;100074.63;;;19.74;42.63
75447;BME280;64024;55.820;37.574;2024-03-02T12:34:31;100071.94;;;19.74;42.25
75447;BME280;64024;55.820;37.574;2024-03-02T12:36:57;100071.13;;;19.73;42.58
75447;BME280;64024;55.820;37.574;2024-03-02T12:39:23;100071.13;;;19.73;42.42
75447;BME280;64024;55.820;37.574;2024-03-02T12:41:50;100072.19;;;19.72;42.69
75447;BME280;64024;55.820;37.574;2024-03-02T12:44:17;100071.38;;;19.72;42.54
75447;BME280;64024;55.820;37.574;2024-03-02T12:46:44;100071.38;;;19.72;42.69
75447;BME280;64024;55.820;37.574;2024-03-02T12:49:12;100078.66;;;19.71;42.58
75447;BME280;64024;55.820;37.574;2024-03-02T12:51:40;100071.66;;;19.70;42.47
75447;BME280;64024;55.820;37.574;2024-03-02T12:54:08;100070.81;;;19.70;42.46